createdAt,value
2023-01-15T00:01:37.237Z,1.90
2023-01-15T00:04:07.326Z,2.00
2023-01-15T00:06:44.365Z,1.80
2023-01-15T00:09:15.831Z,2.00
2023-01-15T00:11:44.114Z,1.90
2023-01-15T00:14:12.578Z,2.10
2023-01-15T00:16:40.825Z,2.60
2023-01-15T00:19:10.891Z,2.30
2023-01-15T00:21:39.059Z,1.80
2023-01-15T00:24:25.266Z,2.80
2023-01-15T00:27:11.640Z,2.10
2023-01-15T00:29:39.899Z,2.50
2023-01-15T00:32:08.917Z,2.30
2023-01-15T00:34:37.571Z,2.90
2023-01-15T00:37:05.706Z,2.30
2023-01-15T00:39:35.476Z,2.20
2023-01-15T00:42:03.540Z,2.20
2023-01-15T00:44:33.789Z,2.40
2023-01-15T00:47:02.197Z,2.40
2023-01-15T00:49:30.540Z,2.00
2023-01-15T00:55:20.545Z,2.60
2023-01-15T00:57:48.620Z,2.60
2023-01-15T01:00:17.105Z,2.20
2023-01-15T01:02:45.114Z,2.20
2023-01-15T01:05:13.310Z,2.40
2023-01-15T01:07:41.261Z,1.60
2023-01-15T01:10:09.540Z,2.40
2023-01-15T01:12:37.739Z,1.70
2023-01-15T01:15:06.145Z,2.00
2023-01-15T01:17:34.004Z,1.90
2023-01-15T01:20:02.060Z,1.90
2023-01-15T01:22:30.341Z,1.90
2023-01-15T01:24:58.178Z,1.50
2023-01-15T01:27:26.277Z,1.80
2023-01-15T01:29:54.228Z,1.70
2023-01-15T01:32:22.079Z,1.40
2023-01-15T01:34:50.249Z,1.40
2023-01-15T01:37:18.414Z,1.70
2023-01-15T01:39:49.503Z,1.80
2023-01-15T01:42:18.178Z,1.70
2023-01-15T01:44:46.326Z,1.70
2023-01-15T01:47:16.442Z,1.70
2023-01-15T01:49:45.942Z,1.40
2023-01-15T01:55:31.187Z,1.60
2023-01-15T01:58:00.911Z,1.30
2023-01-15T02:00:40.134Z,1.90
2023-01-15T02:03:09.210Z,1.70
2023-01-15T02:05:42.684Z,1.70
2023-01-15T02:08:10.877Z,1.60
2023-01-15T02:10:38.997Z,1.80
2023-01-15T02:13:10.550Z,1.50
2023-01-15T02:15:45.442Z,1.80
2023-01-15T02:18:22.531Z,1.60
2023-01-15T02:20:56.970Z,1.60
2023-01-15T02:23:43.965Z,1.80
2023-01-15T02:26:30.924Z,1.70
2023-01-15T02:28:59.792Z,1.30
2023-01-15T02:31:36.675Z,1.30
2023-01-15T02:34:10.939Z,2.30
2023-01-15T02:36:41.540Z,1.20
2023-01-15T02:39:13.554Z,1.20
2023-01-15T02:41:44.302Z,1.30
2023-01-15T02:44:16.732Z,1.10
2023-01-15T02:46:45.674Z,1.00
2023-01-15T02:49:15.325Z,1.20
2023-01-15T02:51:51.250Z,1.10
2023-01-15T02:54:23.932Z,1.40
2023-01-15T02:56:52.713Z,1.60
2023-01-15T02:59:27.468Z,1.10
2023-01-15T03:02:00.671Z,1.60
2023-01-15T03:04:32.732Z,1.40
2023-01-15T03:07:05.754Z,1.70
2023-01-15T03:09:34.760Z,1.60
2023-01-15T03:12:08.877Z,1.60
2023-01-15T03:14:43.343Z,1.70
2023-01-15T03:17:18.266Z,1.80
2023-01-15T03:19:53.581Z,1.80
2023-01-15T03:22:26.067Z,1.80
2023-01-15T03:25:06.840Z,2.10
2023-01-15T03:27:40.433Z,1.90
2023-01-15T03:30:17.837Z,1.70
2023-01-15T03:32:46.199Z,1.80
2023-01-15T03:35:33.110Z,1.80
2023-01-15T03:38:01.456Z,1.30
2023-01-15T03:40:29.806Z,1.70
2023-01-15T03:43:20.070Z,1.50
2023-01-15T03:45:53.316Z,1.60
2023-01-15T03:48:26.651Z,1.80
2023-01-15T03:51:04.090Z,1.70
2023-01-15T03:53:37.982Z,1.80
2023-01-15T03:56:05.960Z,1.40
2023-01-15T03:58:42.697Z,1.60
2023-01-15T04:01:13.248Z,1.50
2023-01-15T04:03:42.978Z,1.60
2023-01-15T04:06:11.325Z,1.70
2023-01-15T04:08:40.999Z,1.50
2023-01-15T04:11:09.559Z,1.70
2023-01-15T04:13:45.724Z,1.50
2023-01-15T04:16:31.277Z,1.50
2023-01-15T04:18:59.901Z,1.40
2023-01-15T04:21:29.023Z,1.60
2023-01-15T04:23:57.108Z,1.30
2023-01-15T04:26:25.288Z,2.00
2023-01-15T04:28:53.257Z,1.50
2023-01-15T04:31:21.458Z,1.40
2023-01-15T04:33:49.523Z,1.20
2023-01-15T04:36:24.949Z,1.10
2023-01-15T04:38:54.745Z,1.50
2023-01-15T04:41:44.280Z,1.70
2023-01-15T04:44:12.242Z,1.30
2023-01-15T04:46:44.780Z,1.40
2023-01-15T04:49:17.154Z,2.00
2023-01-15T04:51:45.808Z,1.10
2023-01-15T04:54:15.400Z,1.40
2023-01-15T04:56:44.729Z,1.20
2023-01-15T04:59:13.763Z,1.20
2023-01-15T05:01:51.328Z,1.30
2023-01-15T05:04:26.283Z,1.30
2023-01-15T05:06:57.432Z,1.40
2023-01-15T05:09:25.616Z,1.20
2023-01-15T05:11:53.797Z,1.30
2023-01-15T05:14:21.854Z,1.20
2023-01-15T05:16:50.221Z,1.10
2023-01-15T05:19:18.381Z,1.00
2023-01-15T05:21:46.750Z,0.80
2023-01-15T05:24:15.745Z,1.30
2023-01-15T05:26:44.164Z,1.20
2023-01-15T05:29:12.629Z,1.20
2023-01-15T05:31:42.664Z,1.00
2023-01-15T05:34:10.997Z,1.30
2023-01-15T05:36:42.461Z,1.00
2023-01-15T05:39:10.685Z,1.00
2023-01-15T05:41:51.138Z,1.00
2023-01-15T05:44:23.680Z,1.20
2023-01-15T05:46:52.616Z,1.10
2023-01-15T05:49:21.974Z,0.90
2023-01-15T05:51:50.653Z,1.20
2023-01-15T05:54:26.538Z,1.10
2023-01-15T05:56:55.246Z,0.90
2023-01-15T05:59:24.842Z,1.30
2023-01-15T06:01:56.338Z,0.90
2023-01-15T06:04:25.448Z,1.10
2023-01-15T06:06:54.897Z,1.10
2023-01-15T06:09:27.888Z,1.10
2023-01-15T06:11:56.511Z,1.20
2023-01-15T06:14:24.850Z,1.40
2023-01-15T06:16:53.059Z,0.90
2023-01-15T06:19:21.067Z,1.20
2023-01-15T06:21:49.295Z,1.30
2023-01-15T06:24:18.088Z,1.80
2023-01-15T06:26:46.402Z,1.60
2023-01-15T06:29:17.740Z,1.40
2023-01-15T06:31:46.180Z,2.10
2023-01-15T06:34:14.160Z,1.60
2023-01-15T06:36:41.922Z,1.70
2023-01-15T06:39:09.830Z,1.30
2023-01-15T06:41:56.711Z,1.10
2023-01-15T06:44:43.097Z,1.40
2023-01-15T06:47:21.620Z,1.10
2023-01-15T06:49:54.858Z,1.40
2023-01-15T06:52:23.626Z,1.00
2023-01-15T06:54:51.913Z,1.10
2023-01-15T06:57:20.144Z,0.80
2023-01-15T06:59:48.751Z,1.00
2023-01-15T07:02:18.375Z,1.30
2023-01-15T07:04:46.942Z,1.40
2023-01-15T07:07:15.535Z,1.70
2023-01-15T07:09:43.555Z,0.80
2023-01-15T07:12:11.471Z,1.90
2023-01-15T07:14:39.501Z,3.50
2023-01-15T07:17:07.544Z,2.80
2023-01-15T07:19:35.671Z,4.80
2023-01-15T07:22:03.638Z,3.10
2023-01-15T07:24:31.616Z,2.80
2023-01-15T07:26:59.553Z,2.50
2023-01-15T07:29:27.409Z,1.60
2023-01-15T07:31:56.108Z,1.20
2023-01-15T07:34:24.077Z,2.70
2023-01-15T07:37:01.008Z,3.20
2023-01-15T07:39:29.391Z,2.40
2023-01-15T07:42:16.124Z,4.00
2023-01-15T07:45:04.398Z,2.10
2023-01-15T07:47:51.223Z,3.70
2023-01-15T07:50:20.729Z,4.20
2023-01-15T07:52:48.784Z,2.80
2023-01-15T07:55:16.767Z,2.00
2023-01-15T07:57:44.873Z,2.40
2023-01-15T08:00:14.899Z,2.50
2023-01-15T08:02:44.452Z,3.20
2023-01-15T08:05:13.051Z,3.60
2023-01-15T08:07:41.717Z,3.70
2023-01-15T08:10:10.776Z,4.90
2023-01-15T08:12:57.736Z,4.70
2023-01-15T08:15:26.574Z,4.80
2023-01-15T08:17:54.555Z,3.70
2023-01-15T08:20:23.897Z,3.20
2023-01-15T08:22:52.072Z,3.70
2023-01-15T08:25:21.391Z,3.20
2023-01-15T08:27:49.478Z,4.30
2023-01-15T08:30:18.864Z,3.40
2023-01-15T08:32:46.926Z,4.20
2023-01-15T08:35:14.929Z,4.90
2023-01-15T08:37:43.016Z,3.60
2023-01-15T08:40:12.160Z,3.40
2023-01-15T08:42:47.688Z,3.50
2023-01-15T08:45:16.796Z,3.20
2023-01-15T08:47:45.105Z,3.50
2023-01-15T08:50:13.104Z,3.70
2023-01-15T08:55:58.684Z,5.20
2023-01-15T08:58:31.302Z,3.00
2023-01-15T09:01:11.091Z,4.90
2023-01-15T09:03:59.725Z,3.30
2023-01-15T09:06:28.371Z,3.20
2023-01-15T09:09:04.199Z,2.90
2023-01-15T09:11:33.193Z,3.50
2023-01-15T09:14:08.241Z,2.90
2023-01-15T09:17:19.070Z,3.00
2023-01-15T09:19:56.819Z,4.60
2023-01-15T09:22:43.481Z,3.20
2023-01-15T09:25:31.641Z,4.40
2023-01-15T09:27:59.771Z,3.70
2023-01-15T09:30:31.265Z,3.50
2023-01-15T09:33:14.431Z,3.50
2023-01-15T09:35:48.347Z,6.70
2023-01-15T09:38:20.563Z,3.30
2023-01-15T09:40:49.395Z,4.60
2023-01-15T09:43:38.844Z,3.60
2023-01-15T09:46:37.081Z,4.30
2023-01-15T09:49:26.097Z,3.40
2023-01-15T09:52:21.380Z,4.50
2023-01-15T09:55:18.070Z,4.10
2023-01-15T09:57:50.088Z,4.30
2023-01-15T10:00:22.519Z,4.80
2023-01-15T10:03:13.626Z,4.50
2023-01-15T10:05:44.570Z,7.30
2023-01-15T10:08:15.730Z,6.50
2023-01-15T10:13:22.299Z,6.20
2023-01-15T10:15:50.939Z,15.10
2023-01-15T10:18:36.265Z,6.40
2023-01-15T10:23:37.001Z,9.40
2023-01-15T10:26:18.796Z,11.90
2023-01-15T10:28:49.776Z,8.20
2023-01-15T10:31:22.254Z,7.80
2023-01-15T10:34:20.097Z,6.10
2023-01-15T10:37:28.568Z,5.70
2023-01-15T10:40:11.968Z,7.00
2023-01-15T10:42:48.438Z,6.90
2023-01-15T10:45:21.904Z,5.30
2023-01-15T10:47:54.219Z,8.80
2023-01-15T10:50:38.855Z,9.30
2023-01-15T10:53:25.514Z,5.40
2023-01-15T10:55:55.725Z,7.60
2023-01-15T10:58:35.784Z,4.70
2023-01-15T11:01:12.486Z,9.60
2023-01-15T11:03:49.618Z,7.60
2023-01-15T11:06:19.586Z,7.80
2023-01-15T11:09:11.518Z,8.30
2023-01-15T11:12:01.444Z,6.30
2023-01-15T11:14:58.317Z,6.80
2023-01-15T11:17:54.806Z,6.20
2023-01-15T11:20:29.498Z,6.10
2023-01-15T11:22:58.338Z,6.30
2023-01-15T11:25:30.696Z,5.20
2023-01-15T11:28:00.124Z,4.90
2023-01-15T11:30:37.733Z,5.50
2023-01-15T11:33:07.196Z,7.90
2023-01-15T11:35:46.778Z,12.70
2023-01-15T11:38:14.911Z,8.00
2023-01-15T11:40:59.196Z,7.90
2023-01-15T11:43:47.715Z,6.80
2023-01-15T11:46:48.405Z,16.10
2023-01-15T11:49:36.086Z,23.40
2023-01-15T11:52:06.742Z,8.50
2023-01-15T11:54:37.764Z,8.80
2023-01-15T11:57:07.021Z,8.00
2023-01-15T11:59:37.123Z,17.00
2023-01-15T12:02:25.471Z,10.40
2023-01-15T12:04:58.258Z,2.10
2023-01-15T12:07:27.005Z,1.50
2023-01-15T12:10:03.965Z,2.40
2023-01-15T12:12:37.948Z,2.90
2023-01-15T12:15:16.553Z,1.80
2023-01-15T12:18:03.349Z,4.20
2023-01-15T12:21:04.725Z,4.20
2023-01-15T12:23:36.317Z,3.40
2023-01-15T12:26:17.602Z,4.50
2023-01-15T12:31:19.017Z,3.40
2023-01-15T12:33:52.702Z,2.80
2023-01-15T12:36:23.400Z,2.50
2023-01-15T12:38:59.014Z,3.40
2023-01-15T12:41:47.285Z,28.80
2023-01-15T12:44:36.970Z,4.90
2023-01-15T12:47:09.674Z,15.60
2023-01-15T12:49:44.926Z,4.80
2023-01-15T12:52:16.157Z,43.90
2023-01-15T12:55:07.116Z,6.50
2023-01-15T12:57:42.925Z,7.90
2023-01-15T13:00:24.532Z,5.80
2023-01-15T13:02:52.396Z,40.80
2023-01-15T13:05:22.521Z,16.50
2023-01-15T13:08:10.735Z,13.90
2023-01-15T13:10:40.129Z,58.00
2023-01-15T13:13:25.612Z,13.70
2023-01-15T13:15:56.205Z,22.20
2023-01-15T13:18:33.569Z,18.10
2023-01-15T13:21:05.394Z,30.30
2023-01-15T13:23:52.018Z,18.10
2023-01-15T13:26:19.861Z,18.60
2023-01-15T13:29:04.730Z,18.10
2023-01-15T13:31:49.522Z,22.30
2023-01-15T13:34:27.386Z,44.00
2023-01-15T13:36:59.139Z,30.50
2023-01-15T13:39:36.133Z,18.30
2023-01-15T13:42:23.051Z,27.90
2023-01-15T13:44:52.259Z,27.70
2023-01-15T13:47:24.056Z,37.20
2023-01-15T13:49:59.890Z,30.40
2023-01-15T13:52:30.086Z,33.90
2023-01-15T13:55:13.623Z,72.00
2023-01-15T13:57:42.742Z,139.70
2023-01-15T14:00:26.299Z,65.70
2023-01-15T14:02:55.434Z,19.70
2023-01-15T14:05:26.991Z,13.00
2023-01-15T14:07:55.500Z,180.00
2023-01-15T14:10:34.810Z,161.70
2023-01-15T14:13:02.840Z,130.90
2023-01-15T14:15:49.536Z,39.80
2023-01-15T14:18:34.239Z,43.40
2023-01-15T14:21:24.991Z,35.20
2023-01-15T14:24:13.763Z,12.90
2023-01-15T14:26:41.874Z,21.40
2023-01-15T14:29:30.622Z,99.40
2023-01-15T14:32:11.938Z,17.60
2023-01-15T14:34:40.910Z,14.50
2023-01-15T14:37:17.817Z,7.80
2023-01-15T14:39:52.193Z,11.50
2023-01-15T14:42:42.360Z,9.40
2023-01-15T14:45:13.130Z,10.70
2023-01-15T14:47:45.902Z,14.20
2023-01-15T14:50:26.270Z,10.60
2023-01-15T14:52:56.389Z,9.40
2023-01-15T14:55:24.969Z,8.50
2023-01-15T14:57:58.180Z,11.20
2023-01-15T15:00:29.508Z,14.80
2023-01-15T15:03:00.155Z,59.90
2023-01-15T15:05:29.911Z,37.10
2023-01-15T15:07:58.132Z,39.80
2023-01-15T15:10:31.519Z,45.30
2023-01-15T15:13:05.085Z,49.50
2023-01-15T15:15:39.399Z,47.60
2023-01-15T15:18:08.242Z,26.60
2023-01-15T15:20:42.255Z,82.20
2023-01-15T15:23:20.459Z,41.50
2023-01-15T15:25:57.636Z,26.00
2023-01-15T15:28:26.133Z,9.40
2023-01-15T15:30:55.261Z,18.30
2023-01-15T15:33:25.275Z,12.40
2023-01-15T15:35:57.489Z,10.90
2023-01-15T15:38:26.089Z,17.60
2023-01-15T15:40:57.138Z,6.70
2023-01-15T15:43:50.277Z,20.30
2023-01-15T15:46:47.497Z,19.70
2023-01-15T15:49:16.023Z,14.40
2023-01-15T15:51:51.032Z,3.20
2023-01-15T15:54:23.509Z,7.40
2023-01-15T15:56:57.467Z,35.00
2023-01-15T15:59:28.483Z,12.00
2023-01-15T16:04:24.605Z,18.30
2023-01-15T16:06:52.701Z,23.90
2023-01-15T16:09:24.252Z,16.60
2023-01-15T16:11:53.340Z,11.80
2023-01-15T16:14:21.913Z,13.10
2023-01-15T16:16:50.570Z,10.60
2023-01-15T16:19:21.473Z,10.90
2023-01-15T16:21:50.180Z,14.20
2023-01-15T16:24:24.126Z,11.70
2023-01-15T16:27:05.568Z,11.90
2023-01-15T16:29:35.152Z,17.70
2023-01-15T16:32:13.456Z,8.30
2023-01-15T16:34:41.987Z,10.40
2023-01-15T16:37:27.303Z,8.30
2023-01-15T16:39:55.369Z,12.70
2023-01-15T16:42:44.029Z,8.10
2023-01-15T16:45:23.713Z,12.40
2023-01-15T16:48:02.925Z,17.70
2023-01-15T16:50:32.508Z,18.70
2023-01-15T16:53:02.232Z,11.60
2023-01-15T16:55:54.786Z,12.00
2023-01-15T16:58:32.956Z,11.30
2023-01-15T17:01:02.305Z,6.10
2023-01-15T17:03:31.894Z,18.30
2023-01-15T17:06:04.661Z,8.20
2023-01-15T17:08:39.877Z,11.80
2023-01-15T17:11:17.833Z,6.00
2023-01-15T17:13:45.710Z,7.90
2023-01-15T17:16:13.925Z,8.00
2023-01-15T17:18:41.913Z,9.10
2023-01-15T17:21:29.382Z,9.60
2023-01-15T17:23:59.930Z,8.70
2023-01-15T17:26:28.916Z,11.60
2023-01-15T17:28:56.847Z,13.40
2023-01-15T17:31:30.079Z,10.20
2023-01-15T17:33:59.108Z,10.00
2023-01-15T17:36:28.129Z,9.80
2023-01-15T17:38:56.620Z,9.00
2023-01-15T17:41:24.710Z,9.50
2023-01-15T17:43:52.678Z,7.00
2023-01-15T17:46:20.678Z,6.30
2023-01-15T17:48:48.792Z,8.10
2023-01-15T17:51:17.106Z,9.90
2023-01-15T17:53:45.031Z,16.40
2023-01-15T17:56:31.577Z,17.10
2023-01-15T17:59:18.335Z,9.80
2023-01-15T18:02:05.979Z,9.70
2023-01-15T18:05:24.162Z,9.30
2023-01-15T18:07:53.256Z,9.30
2023-01-15T18:10:21.581Z,7.10
2023-01-15T18:12:49.934Z,5.20
2023-01-15T18:15:18.035Z,18.80
2023-01-15T18:17:46.177Z,8.60
2023-01-15T18:20:14.296Z,7.40
2023-01-15T18:22:42.252Z,8.80
2023-01-15T18:25:13.050Z,8.70
2023-01-15T18:27:44.061Z,10.10
2023-01-15T18:30:13.044Z,6.60
2023-01-15T18:32:41.808Z,10.40
2023-01-15T18:35:09.863Z,6.90
2023-01-15T18:37:38.175Z,15.60
2023-01-15T18:40:09.921Z,8.70
2023-01-15T18:42:57.534Z,7.00
2023-01-15T18:45:44.975Z,8.30
2023-01-15T18:48:13.023Z,7.40
2023-01-15T18:50:41.092Z,11.50
2023-01-15T18:53:09.056Z,25.00
2023-01-15T18:55:37.099Z,14.80
2023-01-15T18:58:05.167Z,11.80
2023-01-15T19:00:33.349Z,16.50
2023-01-15T19:03:01.380Z,10.20
2023-01-15T19:05:29.779Z,10.90
2023-01-15T19:07:57.811Z,7.70
2023-01-15T19:10:25.883Z,9.10
2023-01-15T19:12:53.727Z,12.20
2023-01-15T19:15:40.487Z,13.80
2023-01-15T19:18:28.632Z,13.40
2023-01-15T19:20:56.682Z,11.50
2023-01-15T19:23:24.787Z,6.20
2023-01-15T19:25:52.818Z,8.10
2023-01-15T19:28:21.831Z,4.50
2023-01-15T19:31:09.097Z,7.00
2023-01-15T19:33:37.271Z,7.80
2023-01-15T19:36:05.528Z,8.20
2023-01-15T19:38:37.173Z,7.70
2023-01-15T19:41:27.677Z,4.30
2023-01-15T19:44:14.551Z,12.20
2023-01-15T19:47:01.506Z,12.40
2023-01-15T19:49:50.701Z,11.50
2023-01-15T19:52:34.618Z,11.10
2023-01-15T19:55:03.341Z,8.20
2023-01-15T19:57:31.352Z,11.10
2023-01-15T19:59:59.879Z,14.20
2023-01-15T20:02:28.104Z,12.00
2023-01-15T20:04:56.919Z,4.20
2023-01-15T20:07:24.944Z,20.80
2023-01-15T20:09:53.229Z,15.60
2023-01-15T20:12:42.600Z,8.30
2023-01-15T20:15:11.121Z,10.70
2023-01-15T20:17:41.327Z,9.10
2023-01-15T20:20:09.931Z,32.10
2023-01-15T20:22:37.966Z,38.80
2023-01-15T20:25:06.336Z,22.70
2023-01-15T20:27:36.828Z,11.10
2023-01-15T20:30:08.542Z,12.90
2023-01-15T20:32:40.821Z,27.50
2023-01-15T20:35:10.648Z,18.20
2023-01-15T20:37:38.795Z,11.70
2023-01-15T20:40:07.524Z,10.00
2023-01-15T20:42:54.725Z,12.30
2023-01-15T20:45:22.690Z,12.30
2023-01-15T20:48:09.141Z,9.50
2023-01-15T20:50:38.025Z,8.40
2023-01-15T20:53:07.942Z,11.80
2023-01-15T20:55:53.810Z,12.90
2023-01-15T20:58:24.340Z,10.20
2023-01-15T21:00:53.396Z,10.50
2023-01-15T21:03:21.558Z,11.70
2023-01-15T21:05:50.171Z,10.40
2023-01-15T21:08:21.076Z,9.40
2023-01-15T21:10:52.307Z,8.70
2023-01-15T21:13:22.913Z,10.80
2023-01-15T21:15:55.638Z,7.50
2023-01-15T21:18:24.309Z,7.80
2023-01-15T21:20:52.713Z,22.40
2023-01-15T21:23:21.018Z,9.20
2023-01-15T21:25:49.158Z,5.50
2023-01-15T21:28:17.305Z,5.70
2023-01-15T21:30:45.336Z,3.80
2023-01-15T21:33:13.963Z,4.50
2023-01-15T21:35:42.179Z,4.50
2023-01-15T21:38:10.589Z,5.80
2023-01-15T21:40:38.945Z,4.10
2023-01-15T21:43:27.860Z,4.70
2023-01-15T21:46:03.190Z,11.40
2023-01-15T21:48:31.478Z,4.70
2023-01-15T21:51:03.179Z,4.40
2023-01-15T21:53:31.765Z,6.70
2023-01-15T21:55:59.825Z,5.00
2023-01-15T21:58:27.799Z,4.20
2023-01-15T22:00:57.394Z,4.00
2023-01-15T22:03:25.449Z,3.70
2023-01-15T22:05:53.328Z,3.70
2023-01-15T22:08:21.393Z,3.50
2023-01-15T22:10:50.061Z,3.60
2023-01-15T22:13:18.411Z,2.90
2023-01-15T22:15:53.001Z,3.20
2023-01-15T22:18:24.188Z,2.80
2023-01-15T22:21:02.451Z,2.70
2023-01-15T22:23:30.699Z,2.60
2023-01-15T22:25:58.851Z,3.10
2023-01-15T22:28:26.938Z,3.10
2023-01-15T22:30:54.834Z,3.40
2023-01-15T22:33:22.806Z,3.40
2023-01-15T22:35:59.874Z,5.80
2023-01-15T22:38:29.155Z,6.00
2023-01-15T22:40:59.891Z,3.10
2023-01-15T22:43:31.661Z,3.00
2023-01-15T22:46:12.842Z,3.00
2023-01-15T22:51:08.834Z,2.90
2023-01-15T22:53:36.767Z,3.40
2023-01-15T22:56:05.106Z,2.60
2023-01-15T22:58:33.301Z,2.40
2023-01-15T23:01:01.810Z,4.00
2023-01-15T23:03:33.979Z,3.00
2023-01-15T23:06:06.136Z,3.50
2023-01-15T23:08:35.671Z,2.90
2023-01-15T23:11:08.545Z,2.80
2023-01-15T23:13:36.845Z,3.90
2023-01-15T23:16:05.008Z,3.00
2023-01-15T23:18:34.665Z,2.80
2023-01-15T23:21:03.715Z,2.50
2023-01-15T23:23:31.928Z,2.60
2023-01-15T23:26:04.302Z,2.60
2023-01-15T23:28:32.573Z,2.80
2023-01-15T23:31:00.839Z,2.20
2023-01-15T23:33:29.183Z,2.70
2023-01-15T23:35:58.725Z,2.30
2023-01-15T23:38:27.310Z,2.50
2023-01-15T23:40:56.290Z,2.70
2023-01-15T23:43:43.146Z,2.90
2023-01-15T23:46:32.898Z,2.20
2023-01-15T23:49:05.781Z,2.20
2023-01-15T23:51:34.195Z,2.70
2023-01-15T23:54:03.564Z,2.20
2023-01-15T23:56:32.782Z,2.10
2023-01-15T23:59:03.594Z,2.00
